sensor_id;sensor_type;location;lat;lon;timestamp;P1;durP1;ratioP1;P2;durP2;ratioP2
62817;SDS011;48869;48.686;20.120;2023-10-08T02:06:59;10.33;;;5.18;;
62817;SDS011;48869;48.686;20.120;2023-10-08T02:09:34;11.75;;;5.10;;
62817;SDS011;48869;48.686;20.120;2023-10-08T02:12:08;11.63;;;5.40;;
62817;SDS011;48869;48.686;20.120;2023-10-08T02:12:17;;;;;;
62817;SDS011;48869;48.686;20.120;2023-10-08T02:14:59;9.78;;;5.00;;
62817;SDS011;48869;48.686;20.120;2023-10-08T02:17:29;10.75;;;4.80;;
62817;SDS011;48869;48.686;20.120;2023-10-08T02:17:35;;;;;;
62817;SDS011;48869;48.686;20.120;2023-10-08T02:20:07;11.98;;;5.25;;
62817;SDS011;48869;48.686;20.120;2023-10-08T02:22:39;12.98;;;5.58;;
62817;SDS011;48869;48.686;20.120;2023-10-08T02:25:22;10.93;;;5.60;;
62817;SDS011;48869;48.686;20.120;2023-10-08T02:27:54;13.03;;;5.68;;
62817;SDS011;48869;48.686;20.120;2023-10-08T02:27:59;;;;;;
62817;SDS011;48869;48.686;20.120;2023-10-08T02:30:37;11.80;;;6.00;;
62817;SDS011;48869;48.686;20.120;2023-10-08T02:33:09;15.30;;;5.90;;
62817;SDS011;48869;48.686;20.120;2023-10-08T02:35:42;11.63;;;5.35;;
62817;SDS011;48869;48.686;20.120;2023-10-08T02:38:24;11.40;;;5.58;;
62817;SDS011;48869;48.686;20.120;2023-10-08T02:41:07;10.05;;;5.98;;
62817;SDS011;48869;48.686;20.120;2023-10-08T02:43:44;13.75;;;6.20;;
62817;SDS011;48869;48.686;20.120;2023-10-08T03:16:29;11.05;;;5.70;;
62817;SDS011;48869;48.686;20.120;2023-10-08T03:18:58;10.43;;;5.53;;
62817;SDS011;48869;48.686;20.120;2023-10-08T03:21:33;14.48;;;6.13;;
62817;SDS011;48869;48.686;20.120;2023-10-08T03:24:05;12.98;;;5.93;;
62817;SDS011;48869;48.686;20.120;2023-10-08T03:26:38;14.50;;;6.28;;
62817;SDS011;48869;48.686;20.120;2023-10-08T03:29:30;13.15;;;6.23;;
62817;SDS011;48869;48.686;20.120;2023-10-08T03:32:02;12.20;;;5.90;;
62817;SDS011;48869;48.686;20.120;2023-10-08T03:34:48;11.23;;;6.03;;
62817;SDS011;48869;48.686;20.120;2023-10-08T03:37:17;12.28;;;6.35;;
62817;SDS011;48869;48.686;20.120;2023-10-08T03:39:55;16.45;;;6.40;;
62817;SDS011;48869;48.686;20.120;2023-10-08T03:42:24;17.30;;;6.50;;
62817;SDS011;48869;48.686;20.120;2023-10-08T03:45:02;10.23;;;5.90;;
62817;SDS011;48869;48.686;20.120;2023-10-08T03:47:37;12.15;;;6.03;;
62817;SDS011;48869;48.686;20.120;2023-10-08T03:50:09;9.65;;;5.95;;
62817;SDS011;48869;48.686;20.120;2023-10-08T03:52:49;11.10;;;6.13;;
62817;SDS011;48869;48.686;20.120;2023-10-08T05:08:36;12.80;;;6.40;;
62817;SDS011;48869;48.686;20.120;2023-10-08T05:11:14;11.68;;;7.35;;
62817;SDS011;48869;48.686;20.120;2023-10-08T05:13:46;13.98;;;7.75;;
62817;SDS011;48869;48.686;20.120;2023-10-08T05:16:22;12.30;;;7.28;;
62817;SDS011;48869;48.686;20.120;2023-10-08T05:19:02;14.45;;;6.55;;
62817;SDS011;48869;48.686;20.120;2023-10-08T05:21:37;13.03;;;6.95;;
62817;SDS011;48869;48.686;20.120;2023-10-08T05:24:09;11.00;;;6.33;;
62817;SDS011;48869;48.686;20.120;2023-10-08T05:26:41;10.53;;;6.43;;
62817;SDS011;48869;48.686;20.120;2023-10-08T05:29:21;16.48;;;9.23;;
62817;SDS011;48869;48.686;20.120;2023-10-08T05:31:56;38.45;;;22.90;;
62817;SDS011;48869;48.686;20.120;2023-10-08T05:34:34;21.53;;;11.68;;
62817;SDS011;48869;48.686;20.120;2023-10-08T06:47:55;14.23;;;7.80;;
62817;SDS011;48869;48.686;20.120;2023-10-08T06:50:30;19.00;;;7.98;;
62817;SDS011;48869;48.686;20.120;2023-10-08T06:57:31;14.10;;;7.40;;
62817;SDS011;48869;48.686;20.120;2023-10-08T06:59:49;13.53;;;7.65;;
62817;SDS011;48869;48.686;20.120;2023-10-08T07:00:10;;;;;;
62817;SDS011;48869;48.686;20.120;2023-10-08T07:05:05;14.55;;;7.53;;
62817;SDS011;48869;48.686;20.120;2023-10-08T07:05:24;;;;;;
62817;SDS011;48869;48.686;20.120;2023-10-08T07:07:58;13.73;;;7.38;;
62817;SDS011;48869;48.686;20.120;2023-10-08T07:14:41;17.48;;;9.25;;
62817;SDS011;48869;48.686;20.120;2023-10-08T07:19:12;20.23;;;10.73;;
62817;SDS011;48869;48.686;20.120;2023-10-08T07:21:34;24.53;;;10.85;;
62817;SDS011;48869;48.686;20.120;2023-10-08T07:23:53;18.48;;;11.33;;
62817;SDS011;48869;48.686;20.120;2023-10-08T07:24:13;;;;;;
62817;SDS011;48869;48.686;20.120;2023-10-08T09:55:13;;;;;;
62817;SDS011;48869;48.686;20.120;2023-10-08T09:57:36;0.60;;;0.60;;
62817;SDS011;48869;48.686;20.120;2023-10-08T09:59:58;0.73;;;0.73;;
62817;SDS011;48869;48.686;20.120;2023-10-08T10:04:30;2.20;;;1.08;;
62817;SDS011;48869;48.686;20.120;2023-10-08T10:15:44;0.90;;;0.90;;
62817;SDS011;48869;48.686;20.120;2023-10-08T10:24:40;1.65;;;1.55;;
62817;SDS011;48869;48.686;20.120;2023-10-08T10:31:23;1.33;;;1.23;;
62817;SDS011;48869;48.686;20.120;2023-10-08T10:31:44;;;;;;
62817;SDS011;48869;48.686;20.120;2023-10-08T10:34:24;0.90;;;0.90;;
62817;SDS011;48869;48.686;20.120;2023-10-08T10:34:29;;;;;;
62817;SDS011;48869;48.686;20.120;2023-10-08T10:36:51;1.25;;;0.73;;
62817;SDS011;48869;48.686;20.120;2023-10-08T10:50:05;0.50;;;0.50;;
62817;SDS011;48869;48.686;20.120;2023-10-08T10:52:22;1.08;;;0.45;;
62817;SDS011;48869;48.686;20.120;2023-10-08T10:54:44;0.45;;;0.45;;
62817;SDS011;48869;48.686;20.120;2023-10-08T10:57:03;0.60;;;0.60;;
